| time (UTC) | temp F | wind direction | speed knots | gust knots | rain 1hr in | rain 24hr in | rain mn in | humidity % | barometer mb |
| 20260906111534 | 0 | 1.7 | 0.0 | 0.00 | 0.01 | 0.01 | 1022.5 | ||
| 20260906104603 | 62 | 303 | 5.2 | 9.6 | 0.00 | 0.01 | 0.01 | 91 | 1022.5 |
| 20260906103034 | 62 | 294 | 4.3 | 9.6 | 0.00 | 0.01 | 0.01 | 91 | 1022.4 |
| 20260906100055 | 63 | 320 | 2.6 | 8.7 | 0.00 | 0.01 | 0.01 | 91 | 1022.6 |
| 20260906094540 | 63 | 251 | 5.2 | 9.6 | 0.00 | 0.01 | 0.01 | 91 | 1022.7 |
| 20260906091557 | 65 | 139 | 0.9 | 5.2 | 0.00 | 0.01 | 0.01 | 88 | 1022.8 |
| 20260906090046 | 64 | 312 | 1.7 | 5.2 | 0.00 | 0.01 | 0.01 | 90 | 1023.0 |
| 20260906084533 | 62 | 124 | 0.9 | 5.2 | 0.00 | 0.01 | 0.01 | 94 | 1023.0 |
| 20260906083033 | 60 | 301 | 1.7 | 3.5 | 0.00 | 0.01 | 0.01 | 94 | 1023.0 |
| 20260906080039 | 60 | 306 | 1.7 | 5.2 | 0.00 | 0.01 | 0.01 | 94 | 1022.9 |
| 20260906073041 | 59 | 328 | 1.7 | 3.5 | 0.00 | 0.01 | 0.01 | 95 | 1022.9 |
| 20260906070050 | 56 | 164 | 0.0 | 0.0 | 0.00 | 0.01 | 0.01 | 93 | 1022.8 |
| 20260906064543 | 55 | 164 | 0.0 | 1.7 | 0.00 | 0.01 | 0.01 | 93 | 1022.8 |
| 20260906061559 | 51 | 164 | 0.0 | 0.0 | 0.01 | 0.01 | 0.01 | 93 | 1022.5 |
| 20260906060047 | 48 | 164 | 0.0 | 0.0 | 0.01 | 0.01 | 0.01 | 93 | 1022.5 |
| 20260906054544 | 46 | 164 | 0.0 | 0.0 | 0.01 | 0.01 | 0.01 | 93 | 1022.2 |
| 20260906053032 | 46 | 164 | 0.0 | 0.0 | 0.01 | 0.01 | 0.01 | 94 | 1021.9 |
| 20260906050110 | 46 | 164 | 0.0 | 0.0 | 0.00 | 0.00 | 0.00 | 94 | 1021.5 |
| 20260906043058 | 46 | 164 | 0.0 | 0.0 | 0.00 | 0.00 | 0.00 | 94 | 1021.4 |
| 20260906040051 | 46 | 164 | 0.0 | 0.0 | 0.00 | 0.00 | 0.00 | 95 | 1021.2 |
| 20260906033049 | 47 | 164 | 0.0 | 0.0 | 0.00 | 0.01 | 0.00 | 95 | 1021.3 |
| 20260906030049 | 47 | 164 | 0.0 | 0.9 | 0.00 | 0.01 | 0.00 | 95 | 1021.1 |
| 20260906024607 | 48 | 164 | 0.0 | 0.0 | 0.00 | 0.01 | 0.00 | 95 | 1021.1 |
| 20260906021559 | 48 | 164 | 0.0 | 0.0 | 0.00 | 0.01 | 0.00 | 94 | 1021.1 |
| 20260906020057 | 48 | 164 | 0.0 | 0.0 | 0.00 | 0.01 | 0.00 | 95 | 1020.9 |
| 20260906014538 | 49 | 164 | 0.0 | 0.0 | 0.00 | 0.01 | 0.00 | 94 | 1020.9 |
| 20260906011553 | 49 | 164 | 0.0 | 0.0 | 0.00 | 0.01 | 0.00 | 95 | 1020.7 |
| 20260906004542 | 50 | 212 | 0.0 | 0.0 | 0.00 | 0.01 | 0.00 | 95 | 1020.7 |
| 20260906001546 | 51 | 212 | 0.0 | 0.0 | 0.00 | 0.01 | 0.00 | 95 | 1020.9 |
| 20260905234550 | 52 | 212 | 0.0 | 0.9 | 0.00 | 0.01 | 0.00 | 94 | 1020.9 |
| 20260905233041 | 50 | 212 | 0.0 | 0.0 | 0.00 | 0.01 | 0.00 | 95 | 1020.8 |
| 20260905231534 | 51 | 212 | 0.0 | 0.0 | 0.00 | 0.01 | 0.00 | 96 | 1020.9 |
| 20260905224539 | 51 | 253 | 0.0 | 0.0 | 0.00 | 0.01 | 0.00 | 95 | 1020.8 |
| 20260905223043 | 51 | 254 | 0.0 | 1.7 | 0.00 | 0.01 | 0.00 | 95 | 1020.7 |
| 20260905220150 | 51 | 256 | 0.0 | 1.7 | 0.00 | 0.01 | 0.00 | 95 | 1020.5 |
| 20260905214551 | 52 | 256 | 0.0 | 2.6 | 0.00 | 0.01 | 0.01 | 95 | 1020.5 |
| 20260905213046 | 51 | 232 | 0.0 | 0.0 | 0.00 | 0.01 | 0.01 | 95 | 1020.4 |
| 20260905211539 | 52 | 232 | 0.0 | 0.0 | 0.00 | 0.01 | 0.01 | 95 | 1020.3 |
| 20260905204552 | 52 | 21 | 0.0 | 0.0 | 0.00 | 0.01 | 0.01 | 95 | 1020.1 |
| 20260905201538 | 54 | 21 | 0.0 | 0.9 | 0.00 | 0.01 | 0.01 | 95 | 1019.9 |
| 20260905194558 | 54 | 21 | 0.9 | 1.7 | 0.00 | 0.01 | 0.01 | 95 | 1019.9 |
| 20260905193038 | 55 | 21 | 0.0 | 0.0 | 0.00 | 0.01 | 0.01 | 95 | 1019.6 |
| 20260905190055 | 57 | 21 | 0.0 | 0.0 | 0.00 | 0.01 | 0.01 | 95 | 1019.2 |
| 20260905183110 | 58 | 21 | 0.0 | 0.0 | 0.00 | 0.01 | 0.01 | 95 | 1018.7 |
| 20260905181556 | 59 | 21 | 0.0 | 1.7 | 0.00 | 0.01 | 0.01 | 95 | 1018.3 |
| 20260905180033 | 61 | 21 | 0.0 | 0.9 | 0.00 | 0.01 | 0.01 | 94 | 1018.1 |
| 20260905173045 | 63 | 185 | 0.0 | 2.6 | 0.00 | 0.01 | 0.01 | 94 | 1017.6 |
| 20260905171533 | 64 | 103 | 0.0 | 1.7 | 0.00 | 0.01 | 0.01 | 92 | 1017.4 |
| 20260905164554 | 66 | 272 | 1.7 | 6.1 | 0.00 | 0.01 | 0.01 | 90 | 1016.7 |
| 20260905163041 | 68 | 249 | 2.6 | 7.0 | 0.00 | 0.01 | 0.01 | 87 | 1016.5 |
| 20260905160052 | 67 | 116 | 1.7 | 7.8 | 0.00 | 0.01 | 0.01 | 89 | 1016.5 |
| 20260905153105 | 69 | 279 | 3.5 | 11.3 | 0.00 | 0.01 | 0.01 | 86 | 1016.4 |
| 20260905150050 | 68 | 278 | 3.5 | 7.0 | 0.00 | 0.01 | 0.01 | 87 | 1016.3 |
| 20260905144547 | 67 | 276 | 2.6 | 7.0 | 0.00 | 0.01 | 0.01 | 89 | 1016.3 |
| 20260905141530 | 68 | 219 | 3.5 | 8.7 | 0.00 | 0.01 | 0.01 | 87 | 1016.3 |
| 20260905134545 | 70 | 175 | 5.2 | 10.4 | 0.00 | 0.01 | 0.01 | 83 | 1016.4 |
| 20260905131546 | 70 | 306 | 4.3 | 11.3 | 0.00 | 0.01 | 0.01 | 80 | 1016.5 |
| 20260905130038 | 70 | 282 | 4.3 | 8.7 | 0.00 | 0.01 | 0.01 | 83 | 1016.7 |
| 20260905123102 | 70 | 299 | 5.2 | 9.6 | 0.00 | 0.01 | 0.01 | 78 | 1016.8 |
| 20260905121527 | 70 | 255 | 3.5 | 8.7 | 0.00 | 0.01 | 0.01 | 71 | 1017.0 |
| 20260905114548 | 69 | 289 | 3.5 | 7.8 | 0.00 | 0.01 | 0.01 | 75 | 1017.0 |
| 20260905113032 | 69 | 278 | 5.2 | 8.7 | 0.00 | 0.01 | 0.01 | 73 | 1017.1 |